createdAt,value
2019-04-20T00:02:04.464Z,71.10
2019-04-20T00:04:33.690Z,71.80
2019-04-20T00:07:01.832Z,70.90
2019-04-20T00:09:36.573Z,71.00
2019-04-20T00:12:12.103Z,71.50
2019-04-20T00:14:37.125Z,72.20
2019-04-20T00:17:05.236Z,73.50
2019-04-20T00:19:40.730Z,74.30
2019-04-20T00:22:14.910Z,76.40
2019-04-20T00:24:55.615Z,77.40
2019-04-20T00:27:42.785Z,78.60
2019-04-20T00:30:06.803Z,79.30
2019-04-20T00:32:42.607Z,80.10
2019-04-20T00:34:57.971Z,80.90
2019-04-20T00:37:27.765Z,81.50
2019-04-20T00:39:57.815Z,81.80
2019-04-20T00:42:33.885Z,82.70
2019-04-20T00:45:07.997Z,83.60
2019-04-20T00:47:44.648Z,83.80
2019-04-20T00:50:19.854Z,84.00
2019-04-20T00:52:51.328Z,84.30
2019-04-20T00:55:04.123Z,85.60
2019-04-20T00:57:41.787Z,85.70
2019-04-20T01:00:21.940Z,85.90
2019-04-20T01:02:49.283Z,86.10
2019-04-20T01:05:36.986Z,86.00
2019-04-20T01:08:02.146Z,86.00
2019-04-20T01:10:40.174Z,87.20
2019-04-20T01:13:10.820Z,87.00
2019-04-20T01:15:46.301Z,86.80
2019-04-20T01:18:05.133Z,86.70
2019-04-20T01:20:34.974Z,87.60
2019-04-20T01:23:10.094Z,87.70
2019-04-20T01:25:40.229Z,88.20
2019-04-20T01:28:24.199Z,87.40
2019-04-20T01:30:43.192Z,87.80
2019-04-20T01:33:22.631Z,87.80
2019-04-20T01:35:57.132Z,88.80
2019-04-20T01:38:26.296Z,89.00
2019-04-20T01:40:44.401Z,88.40
2019-04-20T01:43:14.250Z,89.00
2019-04-20T01:45:44.400Z,89.70
2019-04-20T01:48:22.043Z,89.70
2019-04-20T01:50:55.017Z,89.90
2019-04-20T01:53:39.284Z,89.90
2019-04-20T01:56:07.289Z,89.90
2019-04-20T01:58:50.652Z,89.60
2019-04-20T02:04:29.724Z,89.80
2019-04-20T02:06:59.913Z,89.70
2019-04-20T02:09:30.637Z,89.80
2019-04-20T02:12:06.946Z,89.80
2019-04-20T02:14:40.313Z,89.80
2019-04-20T02:17:30.076Z,90.10
2019-04-20T02:20:12.560Z,90.10
2019-04-20T02:22:45.124Z,90.30
2019-04-20T02:24:55.034Z,90.40
2019-04-20T02:27:31.347Z,90.40
2019-04-20T02:30:21.791Z,90.60
2019-04-20T02:33:07.481Z,90.70
2019-04-20T02:35:56.476Z,91.30
2019-04-20T02:38:23.487Z,91.70
2019-04-20T02:43:52.701Z,91.90
2019-04-20T02:45:51.041Z,91.90
2019-04-20T02:48:29.791Z,92.10
2019-04-20T02:50:58.991Z,92.40
2019-04-20T02:56:03.865Z,92.70
2019-04-20T02:58:38.214Z,92.70
2019-04-20T03:00:58.675Z,93.00
2019-04-20T03:03:19.507Z,93.00
2019-04-20T03:05:46.126Z,93.10
2019-04-20T03:08:22.391Z,93.20
2019-04-20T03:11:11.725Z,93.20
2019-04-20T03:13:32.264Z,93.30
2019-04-20T03:16:02.260Z,93.30
2019-04-20T03:18:33.823Z,93.30
2019-04-20T03:21:09.655Z,93.20
2019-04-20T03:23:44.443Z,93.00
2019-04-20T03:26:12.167Z,92.80
2019-04-20T03:29:05.365Z,92.70
2019-04-20T03:32:15.040Z,92.60
2019-04-20T03:34:47.421Z,92.30
2019-04-20T03:37:01.994Z,92.00
2019-04-20T03:39:25.592Z,92.10
2019-04-20T03:41:40.548Z,91.50
2019-04-20T03:44:10.541Z,91.50
2019-04-20T03:46:43.481Z,91.60
2019-04-20T03:49:35.217Z,91.60
2019-04-20T03:52:02.683Z,92.00
2019-04-20T03:54:30.803Z,91.90
2019-04-20T03:57:24.776Z,92.00
2019-04-20T03:59:55.023Z,91.90
2019-04-20T04:03:00.429Z,92.00
2019-04-20T04:05:25.020Z,92.10
2019-04-20T04:07:45.319Z,92.00
2019-04-20T04:10:24.936Z,92.00
2019-04-20T04:13:09.525Z,92.10
2019-04-20T04:15:46.773Z,92.10
2019-04-20T04:18:19.142Z,92.30
2019-04-20T04:20:50.078Z,92.10
2019-04-20T04:23:32.635Z,92.00
2019-04-20T04:26:05.998Z,92.00
2019-04-20T04:28:31.074Z,92.00
2019-04-20T04:31:08.420Z,92.00
2019-04-20T04:36:04.857Z,91.80
2019-04-20T04:38:43.448Z,91.70
2019-04-20T04:41:19.974Z,91.60
2019-04-20T04:43:44.084Z,91.50
2019-04-20T04:45:57.330Z,91.40
2019-04-20T04:48:34.422Z,91.40
2019-04-20T04:51:07.052Z,91.30
2019-04-20T04:53:44.267Z,91.30
2019-04-20T04:56:07.186Z,91.20
2019-04-20T04:58:34.581Z,91.20
2019-04-20T05:01:08.309Z,91.00
2019-04-20T05:04:04.987Z,90.90
2019-04-20T05:06:29.130Z,90.70
2019-04-20T05:08:48.932Z,90.70
2019-04-20T05:11:15.200Z,90.50
2019-04-20T05:13:54.663Z,90.40
2019-04-20T05:16:38.484Z,90.30
2019-04-20T05:19:13.332Z,90.10
2019-04-20T05:21:58.709Z,90.10
2019-04-20T05:25:04.685Z,90.10
2019-04-20T05:27:39.122Z,90.10
2019-04-20T05:29:52.883Z,89.90
2019-04-20T05:32:33.731Z,89.80
2019-04-20T05:35:15.108Z,89.50
2019-04-20T05:37:51.320Z,89.40
2019-04-20T05:40:16.538Z,89.40
2019-04-20T05:43:04.727Z,89.20
2019-04-20T05:45:32.330Z,89.10
2019-04-20T05:48:04.567Z,88.90
2019-04-20T05:50:37.534Z,89.00
2019-04-20T05:53:11.638Z,88.70
2019-04-20T05:55:40.031Z,89.10
2019-04-20T05:58:12.234Z,88.90
2019-04-20T06:00:47.754Z,88.80
2019-04-20T06:03:10.804Z,88.70
2019-04-20T06:05:55.521Z,88.90
2019-04-20T06:08:26.423Z,88.90
2019-04-20T06:10:49.445Z,88.80
2019-04-20T06:13:30.204Z,88.90
2019-04-20T06:16:15.696Z,88.70
2019-04-20T06:18:42.276Z,88.80
2019-04-20T06:21:35.476Z,88.90
2019-04-20T06:24:02.610Z,88.90
2019-04-20T06:26:47.074Z,88.80
2019-04-20T06:29:18.378Z,89.20
2019-04-20T06:31:57.990Z,89.20
2019-04-20T06:34:33.358Z,89.10
2019-04-20T06:36:57.354Z,88.70
2019-04-20T06:42:10.824Z,88.20
2019-04-20T06:44:37.015Z,88.20
2019-04-20T06:47:16.455Z,88.60
2019-04-20T06:49:51.585Z,87.50
2019-04-20T06:52:33.508Z,87.30
2019-04-20T06:55:03.384Z,87.10
2019-04-20T06:57:40.573Z,87.50
2019-04-20T07:02:46.814Z,87.50
2019-04-20T07:05:28.682Z,87.10
2019-04-20T07:07:47.972Z,86.30
2019-04-20T07:10:18.318Z,85.70
2019-04-20T07:12:40.863Z,85.80
2019-04-20T07:15:17.737Z,84.80
2019-04-20T07:17:57.551Z,83.90
2019-04-20T07:20:42.080Z,84.00
2019-04-20T07:23:18.433Z,83.40
2019-04-20T07:25:39.050Z,83.70
2019-04-20T07:28:14.458Z,83.50
2019-04-20T07:30:42.330Z,83.60
2019-04-20T07:33:12.664Z,83.40
2019-04-20T07:35:40.532Z,82.70
2019-04-20T07:38:27.946Z,80.90
2019-04-20T07:40:44.469Z,80.70
2019-04-20T07:43:07.938Z,78.70
2019-04-20T07:45:45.948Z,78.20
2019-04-20T07:48:29.523Z,78.00
2019-04-20T07:50:41.035Z,76.10
2019-04-20T07:53:18.572Z,76.00
2019-04-20T07:55:55.131Z,76.10
2019-04-20T07:58:17.283Z,75.50
2019-04-20T08:01:15.408Z,75.60
2019-04-20T08:03:38.066Z,75.70
2019-04-20T08:06:14.519Z,74.60
2019-04-20T08:08:53.073Z,74.60
2019-04-20T08:11:22.864Z,75.00
2019-04-20T08:14:05.896Z,73.80
2019-04-20T08:16:40.034Z,73.70
2019-04-20T08:19:01.262Z,74.30
2019-04-20T08:21:38.735Z,73.00
2019-04-20T08:24:07.386Z,71.40
2019-04-20T08:26:27.163Z,71.90
2019-04-20T08:29:01.395Z,70.50
2019-04-20T08:31:47.403Z,69.50
2019-04-20T08:34:33.683Z,67.40
2019-04-20T08:37:03.262Z,63.60
2019-04-20T08:42:18.646Z,61.10
2019-04-20T08:47:12.090Z,61.70
2019-04-20T08:49:43.873Z,61.20
2019-04-20T08:52:31.918Z,61.90
2019-04-20T08:54:40.473Z,63.00
2019-04-20T08:56:58.046Z,63.70
2019-04-20T08:59:25.366Z,63.60
2019-04-20T09:01:58.972Z,62.20
2019-04-20T09:04:38.809Z,57.60
2019-04-20T09:07:05.601Z,57.30
2019-04-20T09:09:49.165Z,56.40
2019-04-20T09:12:14.765Z,53.40
2019-04-20T09:14:34.751Z,53.60
2019-04-20T09:17:10.626Z,54.60
2019-04-20T09:19:53.573Z,52.50
2019-04-20T09:22:45.675Z,52.90
2019-04-20T09:25:42.716Z,53.80
2019-04-20T09:27:46.788Z,53.10
2019-04-20T09:30:25.705Z,52.90
2019-04-20T09:33:06.843Z,54.20
2019-04-20T09:35:37.129Z,53.20
2019-04-20T09:38:11.832Z,51.10
2019-04-20T09:40:46.153Z,51.50
2019-04-20T09:43:25.845Z,52.70
2019-04-20T09:46:00.028Z,50.70
2019-04-20T09:48:34.729Z,49.60
2019-04-20T09:51:20.522Z,51.60
2019-04-20T09:53:39.325Z,50.70
2019-04-20T09:56:15.754Z,48.10
2019-04-20T09:58:55.145Z,47.80
2019-04-20T10:01:18.149Z,48.70
2019-04-20T10:03:35.067Z,49.50
2019-04-20T10:06:05.488Z,47.00
2019-04-20T10:08:42.057Z,46.80
2019-04-20T10:11:07.647Z,47.40
2019-04-20T10:13:38.345Z,48.40
2019-04-20T10:16:08.090Z,47.50
2019-04-20T10:18:41.410Z,43.30
2019-04-20T10:21:10.106Z,43.70
2019-04-20T10:23:40.676Z,44.60
2019-04-20T10:26:10.383Z,44.50
2019-04-20T10:28:39.813Z,43.00
2019-04-20T10:31:10.570Z,43.90
2019-04-20T10:33:40.205Z,44.50
2019-04-20T10:36:19.518Z,45.20
2019-04-20T10:38:48.942Z,44.40
2019-04-20T10:41:29.584Z,43.30
2019-04-20T10:43:51.006Z,43.50
2019-04-20T10:46:20.767Z,43.40
2019-04-20T10:48:53.247Z,43.60
2019-04-20T10:51:21.787Z,44.40
2019-04-20T10:53:52.409Z,44.20
2019-04-20T10:56:23.208Z,42.40
2019-04-20T10:58:53.813Z,42.40
2019-04-20T11:01:23.405Z,43.20
2019-04-20T11:03:52.837Z,44.00
2019-04-20T11:06:22.719Z,45.00
2019-04-20T11:08:52.901Z,45.30
2019-04-20T11:11:26.474Z,44.50
2019-04-20T11:13:53.719Z,43.00
2019-04-20T11:16:24.267Z,44.30
2019-04-20T11:18:53.792Z,45.50
2019-04-20T11:21:24.612Z,46.20
2019-04-20T11:23:56.164Z,46.30
2019-04-20T11:26:26.455Z,44.60
2019-04-20T11:28:56.091Z,45.10
2019-04-20T11:31:32.868Z,46.20
2019-04-20T11:33:56.823Z,47.40
2019-04-20T11:36:27.427Z,48.20
2019-04-20T11:38:56.921Z,48.50
2019-04-20T11:41:29.463Z,48.60
2019-04-20T11:43:57.874Z,49.00
2019-04-20T11:46:27.353Z,49.10
2019-04-20T11:48:57.267Z,49.60
2019-04-20T11:51:27.574Z,49.80
2019-04-20T11:53:58.439Z,49.90
2019-04-20T11:56:33.459Z,49.80
2019-04-20T11:58:59.042Z,49.90
2019-04-20T12:01:59.059Z,50.00
2019-04-20T12:04:40.382Z,50.30
2019-04-20T12:07:01.686Z,50.30
2019-04-20T12:09:33.448Z,50.20
2019-04-20T12:12:16.777Z,50.30
2019-04-20T12:14:34.636Z,50.20
2019-04-20T12:17:04.184Z,50.30
2019-04-20T12:19:36.104Z,50.30
2019-04-20T12:22:05.831Z,50.40
2019-04-20T12:24:36.290Z,50.70
2019-04-20T12:27:07.008Z,50.90
2019-04-20T12:29:36.408Z,51.10
2019-04-20T12:32:08.572Z,51.30
2019-04-20T12:34:37.178Z,51.70
2019-04-20T12:37:07.145Z,52.00
2019-04-20T12:39:37.337Z,52.30
2019-04-20T12:42:09.618Z,52.30
2019-04-20T12:44:39.643Z,52.30
2019-04-20T12:47:28.198Z,52.30
2019-04-20T12:49:57.534Z,52.40
2019-04-20T12:52:28.215Z,52.70
2019-04-20T12:55:01.593Z,53.00
2019-04-20T12:57:30.039Z,53.10
2019-04-20T13:00:01.670Z,53.10
2019-04-20T13:02:31.503Z,53.40
2019-04-20T13:05:01.695Z,53.70
2019-04-20T13:07:41.162Z,54.10
2019-04-20T13:10:04.008Z,54.50
2019-04-20T13:12:56.440Z,54.60
2019-04-20T13:15:38.213Z,54.60
2019-04-20T13:18:09.493Z,54.50
2019-04-20T13:20:39.732Z,53.90
2019-04-20T13:23:10.851Z,54.40
2019-04-20T13:25:41.243Z,55.40
2019-04-20T13:28:10.746Z,57.20
2019-04-20T13:30:40.174Z,56.90
2019-04-20T13:33:12.084Z,56.40
2019-04-20T13:35:41.587Z,55.90
2019-04-20T13:38:12.296Z,55.50
2019-04-20T13:40:43.947Z,55.50
2019-04-20T13:43:14.608Z,56.20
2019-04-20T13:45:44.852Z,57.40
2019-04-20T13:48:15.122Z,57.50
2019-04-20T13:50:44.668Z,57.50
2019-04-20T13:53:14.946Z,57.70
2019-04-20T13:55:45.684Z,57.70
2019-04-20T13:58:33.863Z,57.60
2019-04-20T14:01:22.949Z,57.60
2019-04-20T14:04:05.238Z,58.60
2019-04-20T14:06:35.381Z,58.30
2019-04-20T14:09:09.605Z,58.50
2019-04-20T14:11:39.292Z,58.80
2019-04-20T14:14:08.919Z,59.40
2019-04-20T14:16:41.120Z,60.90
2019-04-20T14:19:11.767Z,61.50
2019-04-20T14:21:41.733Z,61.90
2019-04-20T14:24:13.067Z,62.10
2019-04-20T14:26:44.565Z,62.20
2019-04-20T14:29:14.811Z,62.30
2019-04-20T14:31:45.989Z,62.50
2019-04-20T14:34:15.539Z,62.80
2019-04-20T14:36:46.743Z,63.80
2019-04-20T14:39:16.369Z,64.30
2019-04-20T14:41:46.551Z,64.70
2019-04-20T14:44:16.562Z,65.30
2019-04-20T14:46:45.927Z,65.10
2019-04-20T14:49:16.628Z,65.40
2019-04-20T14:51:46.101Z,66.00
2019-04-20T14:54:17.073Z,66.60
2019-04-20T14:56:47.573Z,67.10
2019-04-20T14:59:31.559Z,67.40
2019-04-20T15:02:06.391Z,67.70
2019-04-20T15:04:37.083Z,67.90
2019-04-20T15:07:06.724Z,68.30
2019-04-20T15:09:38.752Z,68.10
2019-04-20T15:12:08.823Z,67.80
2019-04-20T15:14:38.657Z,67.70
2019-04-20T15:17:12.088Z,67.70
2019-04-20T15:20:01.443Z,68.10
2019-04-20T15:22:41.399Z,68.30
2019-04-20T15:25:11.733Z,68.50
2019-04-20T15:27:44.734Z,68.50
2019-04-20T15:30:14.136Z,68.50
2019-04-20T15:32:44.937Z,68.50
2019-04-20T15:35:17.820Z,68.40
2019-04-20T15:37:46.943Z,68.40
2019-04-20T15:40:17.282Z,68.10
2019-04-20T15:42:56.647Z,68.10
2019-04-20T15:45:19.230Z,68.20
2019-04-20T15:47:49.966Z,68.10
2019-04-20T15:50:20.230Z,67.70
2019-04-20T15:52:54.467Z,67.70
2019-04-20T15:55:29.604Z,67.70
2019-04-20T15:57:53.495Z,67.80
2019-04-20T16:00:24.475Z,67.70
2019-04-20T16:03:05.344Z,67.50
2019-04-20T16:06:01.042Z,67.50
2019-04-20T16:08:36.482Z,66.90
2019-04-20T16:11:06.995Z,66.30
2019-04-20T16:13:40.435Z,65.90
2019-04-20T16:16:09.797Z,65.60
2019-04-20T16:18:40.947Z,65.60
2019-04-20T16:21:17.830Z,65.30
2019-04-20T16:23:50.675Z,65.20
2019-04-20T16:26:44.010Z,65.20
2019-04-20T16:29:15.453Z,65.30
2019-04-20T16:31:47.221Z,65.50
2019-04-20T16:34:16.817Z,65.70
2019-04-20T16:36:46.629Z,65.50
2019-04-20T16:39:16.533Z,65.50
2019-04-20T16:41:46.557Z,65.50
2019-04-20T16:44:17.410Z,65.20
2019-04-20T16:46:48.069Z,65.30
2019-04-20T16:49:17.508Z,64.30
2019-04-20T16:51:47.153Z,64.40
2019-04-20T16:54:17.815Z,64.30
2019-04-20T16:56:48.552Z,64.30
2019-04-20T16:59:20.614Z,63.60
2019-04-20T17:01:49.077Z,64.00
2019-04-20T17:04:22.065Z,63.50
2019-04-20T17:07:08.118Z,63.50
2019-04-20T17:09:37.878Z,63.40
2019-04-20T17:12:07.824Z,62.80
2019-04-20T17:14:37.882Z,62.90
2019-04-20T17:17:07.783Z,62.30
2019-04-20T17:19:37.652Z,62.80
2019-04-20T17:22:09.864Z,62.50
2019-04-20T17:24:43.125Z,61.70
2019-04-20T17:27:33.014Z,61.80
2019-04-20T17:30:22.963Z,61.90
2019-04-20T17:32:52.568Z,62.10
2019-04-20T17:35:37.307Z,62.20
2019-04-20T17:38:14.245Z,62.10
2019-04-20T17:41:01.296Z,61.90
2019-04-20T17:43:25.130Z,61.90
2019-04-20T17:45:54.326Z,61.80
2019-04-20T17:48:33.285Z,61.80
2019-04-20T17:51:10.852Z,61.90
2019-04-20T17:53:47.381Z,62.30
2019-04-20T17:56:10.412Z,63.00
2019-04-20T17:58:41.439Z,65.10
2019-04-20T18:01:59.608Z,65.40
2019-04-20T18:04:50.711Z,65.70
2019-04-20T18:07:04.431Z,66.00
2019-04-20T18:09:44.737Z,67.20
2019-04-20T18:11:58.063Z,66.80
2019-04-20T18:14:43.318Z,67.70
2019-04-20T18:17:34.683Z,67.60
2019-04-20T18:20:00.857Z,67.50
2019-04-20T18:22:31.755Z,67.30
2019-04-20T18:25:19.168Z,66.50
2019-04-20T18:27:56.312Z,65.10
2019-04-20T18:30:18.676Z,63.20
2019-04-20T18:32:38.479Z,62.00
2019-04-20T18:35:16.264Z,61.90
2019-04-20T18:37:52.606Z,60.90
2019-04-20T18:40:29.045Z,60.30
2019-04-20T18:42:59.992Z,60.40
2019-04-20T18:45:33.734Z,59.70
2019-04-20T18:48:14.632Z,59.90
2019-04-20T18:50:31.947Z,60.10
2019-04-20T18:52:53.994Z,60.10
2019-04-20T18:55:37.712Z,59.70
2019-04-20T18:57:55.157Z,59.80
2019-04-20T19:00:31.573Z,59.80
2019-04-20T19:03:01.315Z,59.90
2019-04-20T19:05:29.486Z,59.80
2019-04-20T19:08:03.352Z,59.70
2019-04-20T19:10:34.842Z,59.80
2019-04-20T19:13:09.948Z,59.80
2019-04-20T19:16:03.595Z,59.40
2019-04-20T19:18:57.382Z,59.20
2019-04-20T19:21:13.304Z,59.20
2019-04-20T19:23:53.347Z,59.40
2019-04-20T19:26:19.137Z,59.60
2019-04-20T19:28:52.083Z,59.50
2019-04-20T19:31:35.519Z,59.60
2019-04-20T19:34:09.336Z,59.50
2019-04-20T19:36:28.815Z,59.40
2019-04-20T19:39:08.586Z,59.40
2019-04-20T19:41:32.084Z,59.20
2019-04-20T19:44:06.437Z,59.20
2019-04-20T19:46:49.218Z,59.20
2019-04-20T19:49:08.148Z,59.10
2019-04-20T19:51:49.402Z,59.10
2019-04-20T19:54:24.173Z,58.90
2019-04-20T19:56:48.610Z,58.60
2019-04-20T19:59:11.719Z,58.60
2019-04-20T20:01:35.724Z,58.50
2019-04-20T20:04:09.257Z,57.90
2019-04-20T20:06:45.351Z,57.70
2019-04-20T20:09:12.206Z,57.70
2019-04-20T20:11:42.908Z,58.00
2019-04-20T20:14:13.008Z,58.20
2019-04-20T20:17:00.864Z,58.40
2019-04-20T20:19:30.527Z,58.70
2019-04-20T20:22:00.278Z,58.80
2019-04-20T20:24:17.414Z,58.90
2019-04-20T20:26:52.711Z,59.50
2019-04-20T20:29:26.225Z,60.10
2019-04-20T20:32:02.293Z,60.20
2019-04-20T20:34:26.438Z,60.30
2019-04-20T20:36:55.961Z,60.20
2019-04-20T20:39:28.697Z,60.10
2019-04-20T20:42:01.587Z,60.20
2019-04-20T20:44:33.013Z,60.10
2019-04-20T20:47:05.546Z,60.00
2019-04-20T20:49:48.529Z,60.00
2019-04-20T20:52:17.400Z,59.90
2019-04-20T20:54:41.179Z,59.80
2019-04-20T20:57:05.643Z,59.50
2019-04-20T20:59:40.237Z,59.50
2019-04-20T21:02:08.838Z,59.50
2019-04-20T21:04:33.493Z,59.60
2019-04-20T21:07:02.916Z,59.60
2019-04-20T21:09:33.448Z,59.70
2019-04-20T21:12:08.480Z,59.80
2019-04-20T21:14:38.416Z,59.80
2019-04-20T21:17:13.184Z,59.80
2019-04-20T21:19:55.003Z,59.60
2019-04-20T21:22:15.075Z,59.40
2019-04-20T21:24:42.063Z,59.40
2019-04-20T21:27:15.282Z,59.30
2019-04-20T21:29:47.288Z,59.20
2019-04-20T21:32:16.543Z,59.00
2019-04-20T21:34:51.859Z,58.60
2019-04-20T21:37:22.337Z,58.20
2019-04-20T21:39:55.607Z,57.80
2019-04-20T21:42:22.677Z,57.60
2019-04-20T21:44:52.307Z,57.20
2019-04-20T21:47:27.466Z,56.90
2019-04-20T21:50:09.573Z,57.00
2019-04-20T21:52:32.342Z,56.60
2019-04-20T21:54:56.188Z,56.30
2019-04-20T21:57:26.222Z,55.90
2019-04-20T22:00:02.576Z,55.80
2019-04-20T22:02:32.832Z,55.70
2019-04-20T22:04:59.180Z,55.30
2019-04-20T22:07:28.560Z,55.20
2019-04-20T22:09:58.506Z,55.20
2019-04-20T22:12:37.585Z,55.20
2019-04-20T22:15:06.631Z,55.30
2019-04-20T22:17:33.047Z,55.40
2019-04-20T22:20:14.418Z,55.50
2019-04-20T22:22:50.807Z,55.70
2019-04-20T22:25:23.055Z,55.70
2019-04-20T22:27:36.705Z,55.70
2019-04-20T22:30:08.091Z,55.70
2019-04-20T22:32:45.016Z,55.90
2019-04-20T22:35:12.525Z,56.00
2019-04-20T22:37:47.679Z,56.20
2019-04-20T22:40:22.068Z,56.30
2019-04-20T22:42:54.319Z,56.50
2019-04-20T22:45:21.148Z,56.60
2019-04-20T22:47:52.967Z,56.80
2019-04-20T22:50:34.028Z,56.80
2019-04-20T22:53:06.751Z,57.00
2019-04-20T22:55:47.804Z,57.20
2019-04-20T22:58:03.269Z,57.50
2019-04-20T23:00:36.435Z,59.40
2019-04-20T23:02:58.804Z,61.40
2019-04-20T23:05:28.855Z,61.90
2019-04-20T23:07:58.957Z,62.30
2019-04-20T23:10:34.842Z,62.90
2019-04-20T23:12:59.807Z,64.30
2019-04-20T23:15:30.558Z,65.10
2019-04-20T23:18:00.127Z,66.10
2019-04-20T23:20:32.633Z,67.50
2019-04-20T23:23:00.878Z,67.70
2019-04-20T23:25:33.359Z,68.70
2019-04-20T23:28:09.869Z,69.00
2019-04-20T23:30:38.869Z,70.90
2019-04-20T23:33:05.803Z,71.30
2019-04-20T23:35:37.574Z,71.50
2019-04-20T23:38:11.025Z,72.10
2019-04-20T23:40:37.542Z,72.50
2019-04-20T23:43:22.916Z,73.00
2019-04-20T23:46:03.404Z,73.20
2019-04-20T23:48:42.715Z,73.60
2019-04-20T23:51:35.287Z,74.40
2019-04-20T23:53:53.952Z,74.80
2019-04-20T23:56:16.765Z,75.10
2019-04-20T23:58:49.572Z,76.50
